Time;durP1;ratioP1;P1;durP2;ratioP2;P2;SDS_P1;SDS_P2;PMS_P1;PMS_P2;Temp;Humidity;BMP_temperature;BMP_pressure;BME280_temperature;BME280_humidity;BME280_pressure;Samples;Min_cycle;Max_cycle;Signal;HPM_P1;HPM_P2
2023/08/19 00:00:26;;;;;;;6.90;4.77;;;23.30;1.00;;;;;;6338592;22;20354;-47
2023/08/19 00:02:52;;;;;;;5.57;4.50;;;23.30;1.00;;;;;;6338300;22;20377;-47
2023/08/19 00:05:18;;;;;;;5.03;4.63;;;23.30;1.00;;;;;;6338928;22;20373;-47
2023/08/19 00:07:44;;;;;;;4.50;4.10;;;23.30;1.00;;;;;;6338916;22;20274;-47
2023/08/19 00:10:10;;;;;;;5.30;4.80;;;23.20;99.90;;;;;;6339498;22;20425;-47
2023/08/19 00:12:35;;;;;;;5.33;4.23;;;23.20;1.00;;;;;;6337998;22;20383;-47
2023/08/19 00:15:01;;;;;;;5.00;3.90;;;23.20;1.00;;;;;;6338631;22;20127;-47
2023/08/19 00:17:27;;;;;;;6.47;4.57;;;23.30;1.00;;;;;;6340189;22;20222;-47
2023/08/19 00:19:52;;;;;;;5.03;4.60;;;23.20;1.00;;;;;;6338008;22;20151;-47
2023/08/19 00:22:18;;;;;;;9.40;5.37;;;23.20;1.00;;;;;;6337797;22;20151;-47
2023/08/19 00:24:44;;;;;;;4.73;4.10;;;23.20;1.00;;;;;;6337346;22;20151;-47
2023/08/19 00:27:10;;;;;;;4.87;4.40;;;23.10;1.00;;;;;;6339738;22;20139;-47
2023/08/19 00:29:35;;;;;;;5.53;4.63;;;23.10;1.00;;;;;;6339538;22;20828;-47
2023/08/19 00:32:02;;;;;;;5.97;5.30;;;23.10;1.00;;;;;;6339072;22;20565;-46
2023/08/19 00:34:28;;;;;;;5.47;4.70;;;23.10;1.00;;;;;;6339628;22;20151;-46
2023/08/19 00:36:54;;;;;;;5.20;4.70;;;23.10;54.80;;;;;;6337849;22;20441;-46
2023/08/19 00:39:21;;;;;;;5.60;5.10;;;23.10;49.80;;;;;;6338935;22;20423;-46
2023/08/19 00:41:48;;;;;;;5.70;4.77;;;23.10;72.90;;;;;;6339522;22;20376;-46
2023/08/19 00:44:13;;;;;;;6.53;5.17;;;23.10;51.20;;;;;;6339048;22;20499;-46
2023/08/19 00:46:40;;;;;;;4.80;4.40;;;23.10;60.10;;;;;;6338870;22;20381;-46
2023/08/19 00:49:06;;;;;;;5.13;4.50;;;23.10;1.00;;;;;;6312680;22;20206;-46
2023/08/19 00:51:31;;;;;;;4.73;4.23;;;23.00;1.00;;;;;;6311389;22;20792;-46
2023/08/19 00:53:57;;;;;;;5.90;5.03;;;23.00;1.00;;;;;;6311856;22;20184;-46
2023/08/19 00:56:23;;;;;;;6.47;4.77;;;23.00;31.10;;;;;;6339177;22;20154;-47
2023/08/19 00:58:48;;;;;;;5.00;4.50;;;23.00;86.60;;;;;;6311308;22;20155;-44
2023/08/19 01:01:14;;;;;;;6.57;4.80;;;23.00;33.70;;;;;;6312207;22;20151;-45
2023/08/19 01:03:40;;;;;;;5.40;4.67;;;22.90;1.00;;;;;;6340286;22;20396;-46
2023/08/19 01:06:25;;;;;;;6.43;4.93;;;22.90;99.90;;;;;;6341137;22;20190;-45
2023/08/19 01:09:27;;;;;;;5.50;4.80;;;22.80;99.90;;;;;;6339775;22;20557;-45
2023/08/19 01:11:59;;;;;;;4.80;4.37;;;22.70;99.90;;;;;;6341031;22;20364;-45
2023/08/19 01:14:51;;;;;;;7.13;5.00;;;22.50;1.00;;;;;;6341247;22;20378;-46
2023/08/19 01:17:17;;;;;;;5.10;4.07;;;22.40;1.00;;;;;;6340401;22;20376;-45
2023/08/19 01:19:45;;;;;;;5.50;4.60;;;22.20;99.90;;;;;;6310903;22;20413;-45
2023/08/19 01:22:12;;;;;;;8.30;4.77;;;22.20;1.00;;;;;;6313011;22;20722;-45
2023/08/19 01:24:39;;;;;;;5.60;5.03;;;22.10;1.00;;;;;;6311183;22;20354;-45
2023/08/19 01:27:06;;;;;;;8.40;5.30;;;22.00;37.30;;;;;;6335124;22;20661;-45
2023/08/19 01:29:32;;;;;;;5.70;5.00;;;21.90;18.90;;;;;;6336194;22;20420;-45
2023/08/19 01:31:58;;;;;;;4.97;4.27;;;21.90;99.90;;;;;;6338195;22;20394;-45
2023/08/19 01:34:25;;;;;;;7.90;5.17;;;21.90;99.90;;;;;;6338891;22;20617;-45
2023/08/19 01:36:59;;;;;;;5.20;4.70;;;21.80;99.90;;;;;;6310016;22;20148;-45
2023/08/19 01:39:25;;;;;;;5.37;4.37;;;21.70;1.00;;;;;;6308912;22;20764;-46
2023/08/19 01:41:51;;;;;;;5.47;4.97;;;21.70;1.00;;;;;;6337995;22;20814;-45
2023/08/19 01:44:17;;;;;;;4.47;4.03;;;21.70;1.00;;;;;;6337307;22;20389;-46
2023/08/19 01:46:43;;;;;;;4.20;3.80;;;21.70;1.00;;;;;;6310119;22;20179;-45
2023/08/19 01:49:09;;;;;;;5.90;4.60;;;21.60;68.00;;;;;;6339133;22;20464;-45
2023/08/19 01:51:34;;;;;;;7.40;4.90;;;21.60;99.90;;;;;;6339277;22;20302;-45
2023/08/19 01:54:00;;;;;;;5.20;4.30;;;21.60;29.40;;;;;;6337869;22;20128;-45
2023/08/19 01:56:26;;;;;;;4.27;3.87;;;21.60;1.00;;;;;;6340055;22;20200;-45
2023/08/19 01:58:51;;;;;;;5.00;4.60;;;21.60;99.90;;;;;;6341165;22;20193;-45
2023/08/19 02:01:17;;;;;;;5.90;3.60;;;21.60;99.90;;;;;;6340465;22;20154;-45
2023/08/19 02:03:42;;;;;;;5.13;4.70;;;21.60;99.90;;;;;;6340467;22;20151;-45
2023/08/19 02:06:08;;;;;;;4.90;4.00;;;21.60;11.00;;;;;;6340716;22;20241;-45
2023/08/19 02:08:34;;;;;;;4.20;3.80;;;21.60;99.90;;;;;;6340695;22;20179;-46
2023/08/19 02:10:59;;;;;;;4.50;4.10;;;21.60;1.00;;;;;;6340605;22;20320;-45
2023/08/19 02:13:25;;;;;;;3.50;3.20;;;21.70;1.00;;;;;;6338640;22;20588;-45
2023/08/19 02:15:51;;;;;;;4.20;3.80;;;21.70;1.00;;;;;;6338851;22;20147;-46
2023/08/19 02:18:17;;;;;;;3.67;3.37;;;21.70;20.30;;;;;;6340035;22;20159;-46
2023/08/19 02:20:47;;;;;;;5.40;3.93;;;21.70;99.90;;;;;;6341475;22;20230;-45
2023/08/19 02:23:12;;;;;;;5.77;4.13;;;21.70;99.90;;;;;;6340748;22;20646;-45
2023/08/19 02:25:38;;;;;;;3.70;3.40;;;21.70;1.00;;;;;;6338826;22;20570;-45
2023/08/19 02:28:04;;;;;;;5.37;3.60;;;21.60;99.90;;;;;;6339571;22;20154;-45
2023/08/19 02:30:31;;;;;;;5.97;4.27;;;21.60;55.60;;;;;;6339125;22;20186;-46
2023/08/19 02:33:03;;;;;;;5.00;4.33;;;21.60;99.90;;;;;;6340144;22;20350;-45
2023/08/19 02:35:28;;;;;;;4.30;3.90;;;21.50;1.00;;;;;;6338076;22;20381;-51
2023/08/19 02:37:54;;;;;;;5.73;4.23;;;21.50;99.90;;;;;;6339444;22;20522;-45
2023/08/19 02:40:20;;;;;;;4.73;4.30;;;21.40;99.90;;;;;;6340736;22;20177;-45
2023/08/19 02:42:45;;;;;;;4.80;4.17;;;21.40;1.00;;;;;;6340537;22;20179;-45
2023/08/19 02:45:11;;;;;;;4.87;4.00;;;21.40;1.00;;;;;;6340334;22;20402;-45
2023/08/19 02:47:37;;;;;;;5.00;4.40;;;21.40;1.00;;;;;;6340415;22;20151;-45
2023/08/19 02:50:03;;;;;;;5.60;4.60;;;21.30;1.00;;;;;;6286936;22;20474;-45
2023/08/19 02:52:28;;;;;;;4.17;3.83;;;21.30;72.70;;;;;;6340564;22;20392;-45
2023/08/19 02:54:54;;;;;;;4.80;4.40;;;21.20;99.90;;;;;;6339231;22;20773;-45
2023/08/19 02:57:21;;;;;;;4.40;4.00;;;21.20;99.90;;;;;;6338744;22;20128;-45
2023/08/19 02:59:46;;;;;;;4.90;4.50;;;21.20;99.90;;;;;;6337470;22;20212;-45
2023/08/19 03:02:12;;;;;;;6.10;4.70;;;21.20;99.90;;;;;;6339145;22;20801;-45
2023/08/19 03:04:37;;;;;;;5.53;4.50;;;21.20;99.90;;;;;;6341448;22;20159;-45
2023/08/19 03:07:03;;;;;;;5.60;4.77;;;21.20;99.90;;;;;;6339716;22;20218;-45
2023/08/19 03:09:29;;;;;;;4.70;4.23;;;21.20;1.00;;;;;;6338307;22;20162;-45
2023/08/19 03:11:55;;;;;;;5.73;4.43;;;21.20;30.20;;;;;;6339016;22;20449;-45
2023/08/19 03:14:20;;;;;;;4.57;4.17;;;21.20;1.00;;;;;;6341353;22;20158;-45
2023/08/19 03:16:46;;;;;;;4.40;4.03;;;21.20;99.90;;;;;;6340426;22;20147;-45
2023/08/19 03:19:14;;;;;;;4.97;4.20;;;21.20;1.00;;;;;;6339759;22;20562;-45
2023/08/19 03:21:40;;;;;;;4.40;3.67;;;21.20;99.90;;;;;;6340540;22;20211;-45
2023/08/19 03:24:06;;;;;;;4.50;3.63;;;21.10;99.90;;;;;;6339916;22;20653;-45
2023/08/19 03:26:31;;;;;;;4.80;3.90;;;21.10;1.00;;;;;;6338791;22;20500;-45
2023/08/19 03:28:57;;;;;;;6.43;4.63;;;21.10;1.00;;;;;;6339653;22;20443;-45
2023/08/19 03:31:23;;;;;;;4.00;3.60;;;21.10;1.00;;;;;;6340015;22;20147;-45
2023/08/19 03:33:49;;;;;;;6.47;4.67;;;21.00;1.00;;;;;;6340326;22;20232;-46
2023/08/19 03:36:14;;;;;;;4.70;4.20;;;21.00;99.90;;;;;;6311699;22;20201;-46
2023/08/19 03:38:40;;;;;;;4.63;3.97;;;21.00;1.00;;;;;;6339837;22;20381;-46
2023/08/19 03:41:05;;;;;;;6.77;4.57;;;21.00;1.00;;;;;;6338080;22;20150;-46
2023/08/19 03:43:31;;;;;;;5.73;4.57;;;21.00;1.00;;;;;;6339787;22;20601;-46
2023/08/19 03:45:57;;;;;;;5.20;4.17;;;21.00;1.00;;;;;;6339529;22;20561;-46
2023/08/19 03:48:22;;;;;;;6.40;4.40;;;21.00;91.40;;;;;;6337993;22;20171;-46
2023/08/19 03:50:48;;;;;;;4.50;4.10;;;21.00;1.00;;;;;;6339213;22;20168;-46
2023/08/19 03:53:14;;;;;;;6.07;4.33;;;21.00;1.00;;;;;;6340835;22;20230;-46
2023/08/19 03:55:39;;;;;;;4.90;4.40;;;20.90;1.00;;;;;;6337972;22;20154;-46
2023/08/19 03:58:05;;;;;;;4.57;4.07;;;20.90;99.90;;;;;;6338049;22;20158;-45
2023/08/19 04:00:31;;;;;;;4.53;4.03;;;20.90;99.90;;;;;;6338817;22;20273;-41
2023/08/19 04:02:56;;;;;;;4.77;4.30;;;20.90;99.90;;;;;;6338863;22;20203;-40
2023/08/19 04:05:22;;;;;;;5.20;4.30;;;20.90;99.90;;;;;;6339992;22;20170;-39
2023/08/19 04:07:48;;;;;;;5.30;4.73;;;20.90;99.90;;;;;;6338852;22;20159;-39
2023/08/19 04:10:13;;;;;;;4.37;3.97;;;20.90;1.00;;;;;;6338437;22;20249;-40
2023/08/19 04:12:39;;;;;;;7.50;4.77;;;20.90;1.00;;;;;;6338203;22;20426;-41
2023/08/19 04:15:05;;;;;;;4.60;4.20;;;20.90;1.00;;;;;;6338774;22;20127;-39
2023/08/19 04:17:35;;;;;;;5.93;4.67;;;20.90;1.00;;;;;;6340202;22;20408;-39
2023/08/19 04:20:01;;;;;;;5.57;4.40;;;20.90;99.90;;;;;;6339203;22;20385;-39
2023/08/19 04:22:27;;;;;;;4.40;3.63;;;20.90;99.90;;;;;;6310563;22;20400;-41
2023/08/19 04:24:53;;;;;;;6.83;4.67;;;20.90;1.00;;;;;;6338481;22;20395;-44
2023/08/19 04:27:19;;;;;;;5.13;4.40;;;20.90;1.00;;;;;;6338805;22;20138;-39
2023/08/19 04:29:45;;;;;;;5.13;4.50;;;20.90;1.00;;;;;;6339674;22;20194;-39
2023/08/19 04:32:11;;;;;;;6.10;4.30;;;20.90;1.00;;;;;;6338599;22;20377;-43
2023/08/19 04:34:36;;;;;;;4.33;3.90;;;20.90;1.00;;;;;;6338064;22;20660;-43
2023/08/19 04:37:03;;;;;;;4.70;4.30;;;20.90;1.00;;;;;;6340288;22;20158;-39
2023/08/19 04:39:28;;;;;;;6.27;4.27;;;20.90;1.00;;;;;;6338145;22;20450;-42
2023/08/19 04:41:54;;;;;;;6.97;4.70;;;20.90;1.00;;;;;;6336610;22;20571;-40
2023/08/19 04:44:20;;;;;;;4.30;3.83;;;20.90;1.00;;;;;;6337125;22;20165;-41
2023/08/19 04:46:46;;;;;;;4.80;4.40;;;21.00;1.00;;;;;;6337737;22;20151;-41
2023/08/19 04:49:11;;;;;;;4.70;4.17;;;21.00;1.00;;;;;;6338756;22;20429;-44
2023/08/19 04:51:37;;;;;;;5.50;4.33;;;21.00;1.00;;;;;;6311376;22;20127;-39
2023/08/19 04:54:04;;;;;;;5.23;4.00;;;21.00;1.00;;;;;;6337329;22;20127;-39
2023/08/19 04:56:30;;;;;;;4.63;3.93;;;21.00;1.00;;;;;;6337420;22;20413;-41
2023/08/19 04:59:00;;;;;;;4.20;3.90;;;21.00;1.00;;;;;;6310108;22;20420;-41
2023/08/19 05:01:26;;;;;;;5.03;4.53;;;20.90;1.00;;;;;;6338058;22;20381;-42
2023/08/19 05:03:51;;;;;;;5.20;4.80;;;21.00;54.40;;;;;;6338121;22;20377;-39
2023/08/19 05:06:17;;;;;;;5.00;4.47;;;21.00;3.30;;;;;;6337035;22;20436;-44
2023/08/19 05:08:43;;;;;;;4.73;4.30;;;21.00;8.80;;;;;;6336471;22;20202;-42
2023/08/19 05:11:08;;;;;;;7.67;4.43;;;21.10;1.00;;;;;;6338768;22;20372;-40
2023/08/19 05:13:34;;;;;;;5.50;4.50;;;21.20;1.00;;;;;;6337490;22;20148;-41
2023/08/19 05:16:00;;;;;;;4.67;4.13;;;21.20;1.00;;;;;;6310095;22;20573;-40
2023/08/19 05:18:25;;;;;;;4.50;4.10;;;21.20;1.00;;;;;;6335607;22;20155;-40
2023/08/19 05:20:51;;;;;;;5.03;4.53;;;21.20;1.00;;;;;;6335282;22;20397;-40
2023/08/19 05:23:17;;;;;;;6.13;4.60;;;21.30;1.00;;;;;;6338069;22;20159;-41
2023/08/19 05:25:43;;;;;;;6.67;6.07;;;21.40;1.00;;;;;;6338201;22;20476;-41
2023/08/19 05:28:10;;;;;;;4.63;4.23;;;21.50;99.90;;;;;;6308724;22;20420;-41
2023/08/19 05:30:35;;;;;;;5.90;4.53;;;21.60;99.90;;;;;;6339201;22;20648;-42
2023/08/19 05:33:01;;;;;;;5.90;5.30;;;21.60;58.90;;;;;;6339614;22;20734;-41
2023/08/19 05:35:27;;;;;;;6.30;5.67;;;21.70;1.00;;;;;;6338517;22;20148;-39
2023/08/19 05:37:53;;;;;;;6.23;5.47;;;21.80;99.90;;;;;;6338938;22;20667;-41
2023/08/19 05:40:19;;;;;;;5.30;4.80;;;21.90;99.90;;;;;;6338771;22;20186;-40
2023/08/19 05:42:44;;;;;;;7.60;5.50;;;22.00;99.90;;;;;;6337852;22;20652;-41
2023/08/19 05:45:10;;;;;;;5.57;5.07;;;22.10;91.60;;;;;;6337727;22;20158;-41
2023/08/19 05:47:37;;;;;;;7.50;5.70;;;22.20;1.00;;;;;;6339877;22;20151;-39
2023/08/19 05:50:03;;;;;;;5.83;5.33;;;22.30;1.00;;;;;;6312724;22;20194;-42
2023/08/19 05:52:29;;;;;;;5.10;4.60;;;22.20;2.60;;;;;;6340756;22;20743;-41
2023/08/19 05:54:55;;;;;;;5.73;5.20;;;22.20;99.90;;;;;;6339119;22;20601;-39
2023/08/19 05:57:20;;;;;;;6.20;4.70;;;22.30;99.90;;;;;;6338261;22;20353;-41
2023/08/19 05:59:46;;;;;;;6.00;5.20;;;22.40;99.90;;;;;;6340896;22;20538;-39
2023/08/19 06:02:12;;;;;;;5.13;4.63;;;22.40;18.20;;;;;;6312931;22;20523;-40
2023/08/19 06:04:37;;;;;;;5.23;4.73;;;22.60;1.00;;;;;;6340211;22;20151;-41
2023/08/19 06:07:03;;;;;;;5.00;4.50;;;22.70;99.90;;;;;;6339726;22;20237;-41
2023/08/19 06:09:29;;;;;;;5.93;4.67;;;22.80;99.90;;;;;;6340013;22;20174;-40
2023/08/19 06:11:55;;;;;;;4.90;4.43;;;23.00;1.00;;;;;;6312209;22;20128;-42
2023/08/19 06:14:20;;;;;;;7.10;5.20;;;23.10;1.00;;;;;;6337156;22;20226;-40
2023/08/19 06:16:46;;;;;;;5.97;4.97;;;23.30;99.90;;;;;;6338915;22;20147;-40
2023/08/19 06:19:12;;;;;;;5.77;5.27;;;23.50;99.90;;;;;;6339312;22;20237;-40
2023/08/19 06:21:38;;;;;;;7.10;5.07;;;23.60;1.00;;;;;;6340621;22;20357;-41
2023/08/19 06:24:04;;;;;;;7.70;5.60;;;23.80;1.00;;;;;;6340576;22;20134;-42
2023/08/19 06:26:30;;;;;;;7.03;5.37;;;23.90;99.90;;;;;;6340876;22;20769;-42
2023/08/19 06:28:55;;;;;;;7.03;5.37;;;24.10;99.90;;;;;;6339498;22;20512;-41
2023/08/19 06:31:21;;;;;;;7.17;5.93;;;24.20;1.00;;;;;;6313953;22;20159;-41
2023/08/19 06:33:47;;;;;;;5.33;4.80;;;24.30;1.00;;;;;;6313131;22;20162;-41
2023/08/19 06:36:20;;;;;;;6.57;5.87;;;24.50;1.00;;;;;;6341401;22;20393;-40
2023/08/19 06:38:49;;;;;;;7.00;5.73;;;24.70;1.00;;;;;;6339439;22;20373;-40
2023/08/19 06:41:17;;;;;;;8.10;5.70;;;24.80;1.00;;;;;;6309444;22;20405;-41
2023/08/19 06:43:43;;;;;;;7.30;5.67;;;25.00;99.90;;;;;;6338095;22;20886;-41
2023/08/19 06:46:10;;;;;;;9.30;6.27;;;25.10;99.90;;;;;;6310467;22;20649;-41
2023/08/19 06:48:36;;;;;;;6.83;5.00;;;25.30;99.90;;;;;;6309490;22;20354;-40
2023/08/19 06:51:03;;;;;;;8.43;6.17;;;25.50;99.90;;;;;;6335882;22;20443;-41
2023/08/19 06:53:29;;;;;;;5.77;5.17;;;25.60;99.90;;;;;;6336196;22;20396;-40
2023/08/19 06:56:08;;;;;;;8.07;5.20;;;25.80;99.90;;;;;;6310998;22;20423;-40
2023/08/19 06:58:38;;;;;;;9.60;5.47;;;26.00;99.90;;;;;;6336737;22;20376;-40
2023/08/19 07:01:07;;;;;;;6.93;5.70;;;26.20;99.90;;;;;;6283701;22;20397;-39
2023/08/19 07:03:34;;;;;;;7.10;6.40;;;26.30;95.30;;;;;;6313203;22;20392;-40
2023/08/19 07:06:02;;;;;;;7.30;6.60;;;26.40;54.90;;;;;;6340145;22;20706;-39
2023/08/19 07:08:30;;;;;;;6.13;5.30;;;26.50;32.80;;;;;;6315045;22;20363;-40
2023/08/19 07:10:59;;;;;;;5.97;5.37;;;26.40;16.40;;;;;;6313259;22;20472;-39
2023/08/19 07:13:25;;;;;;;6.53;5.93;;;26.30;5.30;;;;;;6313515;22;20458;-42
2023/08/19 07:15:58;;;;;;;7.93;5.73;;;26.30;3.40;;;;;;6343108;22;20473;-41
2023/08/19 07:18:26;;;;;;;7.60;6.90;;;26.20;1.00;;;;;;6342073;22;20449;-39
2023/08/19 07:20:52;;;;;;;9.23;6.60;;;26.30;1.00;;;;;;6342098;22;20411;-39
2023/08/19 07:23:18;;;;;;;6.63;6.03;;;26.40;1.00;;;;;;6341363;22;20356;-39
2023/08/19 07:25:44;;;;;;;8.50;6.30;;;26.50;1.00;;;;;;6339496;22;20158;-39
2023/08/19 07:28:11;;;;;;;6.23;5.60;;;26.60;1.00;;;;;;6312051;22;20381;-41
2023/08/19 07:30:37;;;;;;;7.93;5.70;;;26.80;1.00;;;;;;6312843;22;20455;-38
2023/08/19 07:33:04;;;;;;;8.07;6.80;;;27.00;1.00;;;;;;6340565;22;20357;-39
2023/08/19 07:35:30;;;;;;;7.37;6.70;;;27.30;1.00;;;;;;6312685;22;20432;-41
2023/08/19 07:37:55;;;;;;;9.60;6.57;;;27.50;1.00;;;;;;6339278;22;20381;-38
2023/08/19 07:40:21;;;;;;;9.60;5.70;;;27.70;1.00;;;;;;6338764;22;20902;-38
2023/08/19 07:42:47;;;;;;;6.90;6.20;;;27.90;1.00;;;;;;6339327;22;20151;-41
2023/08/19 07:45:12;;;;;;;9.90;6.37;;;28.00;1.00;;;;;;6339604;22;20166;-40
2023/08/19 07:47:38;;;;;;;7.27;6.67;;;28.30;1.00;;;;;;6338561;22;20151;-43
2023/08/19 07:50:04;;;;;;;7.03;6.37;;;28.60;1.00;;;;;;6337619;22;20190;-50
2023/08/19 07:52:30;;;;;;;7.90;5.60;;;29.00;1.00;;;;;;6309755;22;20154;-40
2023/08/19 07:54:56;;;;;;;7.13;6.17;;;29.20;1.00;;;;;;6337347;22;20392;-40
2023/08/19 07:57:22;;;;;;;8.03;5.43;;;29.30;1.00;;;;;;6336775;22;20511;-41
2023/08/19 07:59:47;;;;;;;12.20;6.80;;;29.50;1.00;;;;;;6337433;22;20385;-39
2023/08/19 08:02:13;;;;;;;6.57;5.90;;;29.80;1.00;;;;;;6338048;22;20170;-38
2023/08/19 08:04:40;;;;;;;7.67;6.80;;;29.90;1.00;;;;;;6336269;22;20184;-39
2023/08/19 08:07:05;;;;;;;8.03;6.00;;;30.00;1.00;;;;;;6335891;22;20441;-40
2023/08/19 08:09:31;;;;;;;7.37;6.10;;;30.10;1.00;;;;;;6308592;22;21089;-39
2023/08/19 08:11:57;;;;;;;6.90;6.20;;;30.10;1.00;;;;;;6337930;22;20418;-39
2023/08/19 08:14:23;;;;;;;6.63;5.90;;;30.10;1.00;;;;;;6284783;22;20182;-41
2023/08/19 08:16:48;;;;;;;6.73;6.20;;;30.20;1.00;;;;;;6337161;22;20147;-40
2023/08/19 08:19:15;;;;;;;7.70;6.67;;;30.40;1.00;;;;;;6337622;22;20334;-42
2023/08/19 08:21:42;;;;;;;9.20;6.57;;;30.50;1.00;;;;;;6338407;22;20182;-40
2023/08/19 08:24:09;;;;;;;7.93;6.60;;;30.50;1.00;;;;;;6337650;22;20336;-40
2023/08/19 08:26:35;;;;;;;8.30;5.87;;;30.50;1.00;;;;;;6334259;22;20417;-41
2023/08/19 08:29:01;;;;;;;6.90;5.53;;;30.50;1.00;;;;;;6337122;22;20425;-40
2023/08/19 08:31:28;;;;;;;6.93;6.23;;;30.60;1.00;;;;;;6337367;22;20568;-42
2023/08/19 08:33:53;;;;;;;6.73;5.83;;;30.60;1.00;;;;;;6337854;22;20356;-40
2023/08/19 08:36:19;;;;;;;7.17;5.13;;;30.70;1.00;;;;;;6338624;22;20245;-41
2023/08/19 08:38:44;;;;;;;7.07;5.97;;;31.00;1.00;;;;;;6310436;22;20159;-41
2023/08/19 08:41:11;;;;;;;8.00;6.30;;;31.10;1.00;;;;;;6338087;22;20155;-41
2023/08/19 08:43:37;;;;;;;8.13;6.23;;;31.40;1.00;;;;;;6310697;22;20522;-40
2023/08/19 08:46:03;;;;;;;5.73;5.20;;;31.60;1.00;;;;;;6310545;22;20456;-39
2023/08/19 08:48:31;;;;;;;6.33;5.70;;;31.80;1.00;;;;;;6337371;22;20746;-39
2023/08/19 08:50:57;;;;;;;6.90;5.80;;;32.00;1.00;;;;;;6337622;22;20362;-40
2023/08/19 08:53:24;;;;;;;8.27;6.10;;;32.10;1.00;;;;;;6310555;22;20359;-39
2023/08/19 08:55:52;;;;;;;6.20;5.63;;;32.30;1.00;;;;;;6339571;22;20351;-42
2023/08/19 08:58:17;;;;;;;6.10;5.50;;;32.40;1.00;;;;;;6338914;22;20629;-40
2023/08/19 09:00:44;;;;;;;6.53;5.30;;;32.30;1.00;;;;;;6339300;22;20389;-42
2023/08/19 09:03:10;;;;;;;7.40;6.67;;;32.50;1.00;;;;;;6339675;22;20210;-39
2023/08/19 09:05:38;;;;;;;7.60;5.43;;;32.60;1.00;;;;;;6313935;22;20654;-43
2023/08/19 09:08:09;;;;;;;8.50;5.40;;;32.70;1.00;;;;;;6342418;22;20158;-41
2023/08/19 09:10:36;;;;;;;7.80;6.57;;;32.60;1.00;;;;;;6312471;22;20430;-41
2023/08/19 09:13:03;;;;;;;7.27;5.53;;;33.00;1.00;;;;;;6311532;22;20513;-42
2023/08/19 09:15:29;;;;;;;9.67;5.93;;;33.00;1.00;;;;;;6339095;22;20364;-39
2023/08/19 09:17:59;;;;;;;7.43;5.87;;;33.10;1.00;;;;;;6312268;22;20647;-41
2023/08/19 09:20:27;;;;;;;7.97;5.77;;;32.90;1.00;;;;;;6311603;22;20389;-42
2023/08/19 09:23:09;;;;;;;7.67;5.50;;;33.10;1.00;;;;;;6339176;22;20374;-41
2023/08/19 09:25:35;;;;;;;7.60;6.00;;;33.10;1.00;;;;;;6340090;22;20384;-43
2023/08/19 09:28:00;;;;;;;7.30;5.67;;;32.90;1.00;;;;;;6339492;22;20416;-47
2023/08/19 09:30:33;;;;;;;6.23;5.50;;;33.30;1.00;;;;;;6340136;22;20490;-40
2023/08/19 09:33:02;;;;;;;6.63;5.90;;;33.80;1.00;;;;;;6337918;22;20163;-40
2023/08/19 09:35:36;;;;;;;8.40;5.50;;;34.40;1.00;;;;;;6338857;22;20392;-41
2023/08/19 09:38:02;;;;;;;7.50;5.40;;;34.70;1.00;;;;;;6338308;22;20419;-42
2023/08/19 09:40:28;;;;;;;6.20;5.70;;;34.80;1.00;;;;;;6338300;22;20685;-38
2023/08/19 09:42:56;;;;;;;6.23;5.30;;;35.00;1.00;;;;;;6311108;22;20450;-39
2023/08/19 09:45:25;;;;;;;6.00;4.90;;;35.30;1.00;;;;;;6336325;22;20212;-40
2023/08/19 09:47:52;;;;;;;6.93;5.27;;;35.70;1.00;;;;;;6310284;22;20354;-39
2023/08/19 09:50:20;;;;;;;6.80;5.90;;;35.80;1.00;;;;;;6337889;22;20425;-39
2023/08/19 09:53:06;;;;;;;5.73;4.97;;;36.20;1.00;;;;;;6336515;22;20775;-40
2023/08/19 09:55:34;;;;;;;8.13;4.97;;;36.70;1.00;;;;;;6337667;22;20601;-37
2023/08/19 09:58:00;;;;;;;6.03;5.33;;;36.70;1.00;;;;;;6339850;22;20587;-39
2023/08/19 10:00:26;;;;;;;9.43;5.20;;;37.20;1.00;;;;;;6339597;22;20362;-38
2023/08/19 10:02:51;;;;;;;6.27;5.67;;;37.50;1.00;;;;;;6338560;22;20266;-39
2023/08/19 10:05:17;;;;;;;5.50;5.00;;;37.80;1.00;;;;;;6337729;22;20522;-39
2023/08/19 10:08:05;;;;;;;5.63;4.90;;;37.50;1.00;;;;;;6337199;22;20319;-37
2023/08/19 10:10:32;;;;;;;5.90;5.30;;;37.70;1.00;;;;;;6336344;22;20513;-38
2023/08/19 10:12:58;;;;;;;6.87;4.93;;;37.10;1.00;;;;;;6309697;22;20480;-42
2023/08/19 10:15:26;;;;;;;7.40;5.10;;;37.30;1.00;;;;;;6309039;22;20354;-39
2023/08/19 10:17:55;;;;;;;6.93;5.47;;;37.70;1.00;;;;;;6336390;22;20132;-40
2023/08/19 10:20:25;;;;;;;5.50;5.03;;;38.30;1.00;;;;;;6335312;22;20389;-39
2023/08/19 10:22:54;;;;;;;8.60;5.23;;;38.70;1.00;;;;;;6308537;22;20417;-38
2023/08/19 10:25:20;;;;;;;6.97;5.17;;;38.60;1.00;;;;;;6307810;22;20385;-40
2023/08/19 10:27:46;;;;;;;5.87;5.27;;;38.20;1.00;;;;;;6335291;22;20818;-38
2023/08/19 10:30:31;;;;;;;5.83;5.27;;;38.80;1.00;;;;;;6336198;22;20562;-39
2023/08/19 10:33:05;;;;;;;5.23;4.73;;;39.40;1.00;;;;;;6336020;22;20131;-39
2023/08/19 10:36:06;;;;;;;5.50;5.00;;;39.70;1.00;;;;;;6307371;22;20676;-40
2023/08/19 10:38:47;;;;;;;7.77;4.90;;;40.00;1.00;;;;;;6306682;22;20372;-39
2023/08/19 10:41:28;;;;;;;7.90;5.33;;;40.20;1.00;;;;;;6334937;22;20381;-39
2023/08/19 10:44:09;;;;;;;6.50;5.07;;;40.50;1.00;;;;;;6335177;22;20373;-39
2023/08/19 10:46:49;;;;;;;6.87;6.20;;;40.70;1.00;;;;;;6307994;22;20389;-38
2023/08/19 10:49:18;;;;;;;6.10;5.57;;;40.30;1.00;;;;;;6335035;22;20417;-40
2023/08/19 10:52:10;;;;;;;8.57;4.70;;;40.10;1.00;;;;;;6335083;22;20388;-38
2023/08/19 10:54:40;;;;;;;4.97;4.57;;;40.50;1.00;;;;;;6335980;22;20364;-39
2023/08/19 10:57:07;;;;;;;5.43;5.00;;;40.90;1.00;;;;;;6336427;22;20364;-38
2023/08/19 10:59:36;;;;;;;6.67;4.60;;;41.10;1.00;;;;;;6336462;22;20700;-38
2023/08/19 11:02:04;;;;;;;6.60;5.53;;;41.50;1.00;;;;;;6336955;22;20413;-39
2023/08/19 11:04:31;;;;;;;7.10;4.60;;;41.00;1.00;;;;;;6335796;22;20468;-37
2023/08/19 11:06:57;;;;;;;5.13;4.63;;;40.20;1.00;;;;;;6339682;22;20749;-40
2023/08/19 11:09:24;;;;;;;6.23;4.50;;;40.10;1.00;;;;;;6338439;22;20411;-37
2023/08/19 11:11:50;;;;;;;6.80;4.93;;;40.10;1.00;;;;;;6337754;22;20385;-41
2023/08/19 11:14:19;;;;;;;7.30;5.50;;;40.40;1.00;;;;;;6337866;22;20381;-41
2023/08/19 11:16:52;;;;;;;5.17;4.67;;;40.00;1.00;;;;;;6338380;22;20471;-39
2023/08/19 11:19:18;;;;;;;5.27;4.73;;;40.10;1.00;;;;;;6339439;22;20381;-38
2023/08/19 11:21:45;;;;;;;8.30;4.83;;;40.10;1.00;;;;;;6338952;22;20542;-38
2023/08/19 11:24:11;;;;;;;6.10;5.50;;;40.70;1.00;;;;;;6339120;22;20362;-37
2023/08/19 11:26:50;;;;;;;6.00;4.80;;;40.90;1.00;;;;;;6336683;22;20820;-40
2023/08/19 11:29:16;;;;;;;5.13;4.50;;;40.40;1.00;;;;;;6338194;22;20421;-37
2023/08/19 11:31:42;;;;;;;5.50;5.10;;;39.90;1.00;;;;;;6338970;22;20389;-37
2023/08/19 11:34:12;;;;;;;6.40;5.37;;;39.60;1.00;;;;;;6339068;22;20711;-37
2023/08/19 11:36:39;;;;;;;4.93;4.53;;;39.40;1.00;;;;;;6336105;22;20361;-39
2023/08/19 11:39:06;;;;;;;4.77;4.27;;;39.60;1.00;;;;;;6336350;22;20357;-38
2023/08/19 11:41:33;;;;;;;5.60;5.20;;;40.10;1.00;;;;;;6336646;22;20390;-40
2023/08/19 11:44:00;;;;;;;4.10;3.80;;;40.10;1.00;;;;;;6338816;22;20808;-38
2023/08/19 11:46:30;;;;;;;4.37;3.93;;;40.60;1.00;;;;;;6336415;22;20404;-39
2023/08/19 11:49:04;;;;;;;5.20;4.83;;;41.20;1.00;;;;;;6307681;22;20429;-40
2023/08/19 11:51:29;;;;;;;10.07;5.03;;;41.00;1.00;;;;;;6335222;22;20353;-38
2023/08/19 11:54:01;;;;;;;4.93;4.53;;;40.60;1.00;;;;;;6310287;22;20430;-38
2023/08/19 11:56:27;;;;;;;5.13;4.67;;;40.80;1.00;;;;;;6336541;22;20158;-38
2023/08/19 11:58:54;;;;;;;6.43;4.73;;;41.00;1.00;;;;;;6335352;22;20381;-38
2023/08/19 12:01:22;;;;;;;5.47;4.97;;;41.40;1.00;;;;;;6336581;22;20178;-40
2023/08/19 12:03:49;;;;;;;4.93;4.53;;;42.10;1.00;;;;;;6307784;22;20494;-42
2023/08/19 12:06:15;;;;;;;5.27;4.40;;;42.00;1.00;;;;;;6334752;22;20429;-42
2023/08/19 12:08:42;;;;;;;9.03;5.20;;;42.00;1.00;;;;;;6334822;22;20699;-40
2023/08/19 12:11:09;;;;;;;5.93;5.20;;;42.40;1.00;;;;;;6337250;22;20420;-38
2023/08/19 12:13:35;;;;;;;6.00;4.60;;;42.50;1.00;;;;;;6337543;22;20374;-40
2023/08/19 12:16:02;;;;;;;4.63;4.27;;;42.50;1.00;;;;;;6338066;22;20397;-38
2023/08/19 12:18:33;;;;;;;6.10;4.63;;;42.70;1.00;;;;;;6338290;22;20469;-39
2023/08/19 12:21:03;;;;;;;5.10;4.70;;;43.00;1.00;;;;;;6335572;22;20764;-40
2023/08/19 12:23:29;;;;;;;4.23;3.80;;;42.20;1.00;;;;;;6307403;22;20388;-38
2023/08/19 12:25:59;;;;;;;4.33;3.93;;;41.90;1.00;;;;;;6307239;22;20669;-41
2023/08/19 12:28:28;;;;;;;4.33;3.93;;;41.80;1.00;;;;;;6333866;22;20981;-38
2023/08/19 12:30:54;;;;;;;5.23;4.73;;;41.80;1.00;;;;;;6332295;22;20466;-38
2023/08/19 12:33:20;;;;;;;6.00;5.47;;;41.80;1.00;;;;;;6333058;22;20358;-38
2023/08/19 12:35:48;;;;;;;8.53;5.50;;;41.30;1.00;;;;;;6333258;22;20365;-37
2023/08/19 12:38:15;;;;;;;4.27;3.97;;;41.70;1.00;;;;;;6333735;22;20416;-39
2023/08/19 12:40:44;;;;;;;5.93;5.30;;;41.20;1.00;;;;;;6333971;22;20456;-39
2023/08/19 12:43:12;;;;;;;5.20;4.80;;;41.50;1.00;;;;;;6335298;22;20431;-39
2023/08/19 12:45:38;;;;;;;6.80;4.70;;;41.50;1.00;;;;;;6282663;22;20386;-39
2023/08/19 12:48:04;;;;;;;4.83;4.40;;;41.40;1.00;;;;;;6308701;22;20919;-39
2023/08/19 12:50:30;;;;;;;4.87;4.20;;;41.20;1.00;;;;;;6308447;22;20918;-37
2023/08/19 12:52:56;;;;;;;6.50;5.70;;;40.30;1.00;;;;;;6336873;22;20791;-40
2023/08/19 12:55:23;;;;;;;5.00;4.60;;;40.50;1.00;;;;;;6337525;22;20181;-39